Time;durP1;ratioP1;P1;durP2;ratioP2;P2;SDS_P1;SDS_P2;PMS_P1;PMS_P2;Temp;Humidity;BMP_temperature;BMP_pressure;BME280_temperature;BME280_humidity;BME280_pressure;Samples;Min_cycle;Max_cycle;Signal;HPM_P1;HPM_P2
2023/10/18 00:01:16;;;;;;;;;;;18.50;99.90;;;;;;5093093;28;20396;-85
2023/10/18 00:03:41;;;;;;;;;;;18.50;99.90;;;;;;5091219;28;19918;-86
2023/10/18 00:06:18;;;;;;;;;;;18.40;99.90;;;;;;5090887;28;19954;-82
2023/10/18 00:08:45;;;;;;;;;;;18.40;99.90;;;;;;5092283;28;20299;-85
2023/10/18 00:11:11;;;;;;;;;;;18.40;99.90;;;;;;5092332;28;19908;-86
2023/10/18 00:13:36;;;;;;;;;;;18.40;99.90;;;;;;5092027;28;19916;-86
2023/10/18 00:16:03;;;;;;;;;;;18.40;99.90;;;;;;5092070;28;20329;-86
2023/10/18 00:18:28;;;;;;;;;;;18.40;99.90;;;;;;5092250;28;20007;-87
2023/10/18 00:21:00;;;;;;;;;;;18.40;99.90;;;;;;5090745;28;19940;-86
2023/10/18 00:23:31;;;;;;;;;;;18.40;99.90;;;;;;5090707;28;19908;-87
2023/10/18 00:26:00;;;;;;;;;;;18.40;99.90;;;;;;5092002;28;20438;-86
2023/10/18 00:28:26;;;;;;;;;;;18.40;99.90;;;;;;5071358;28;20376;-85
2023/10/18 00:30:52;;;;;;;;;;;18.40;99.90;;;;;;5104020;28;20003;-85
2023/10/18 00:33:20;;;;;;;;;;;18.40;99.90;;;;;;5086384;28;20019;-85
2023/10/18 00:35:52;;;;;;;;;;;18.40;99.90;;;;;;5071018;28;19913;-85
2023/10/18 00:38:18;;;;;;;;;;;18.40;99.90;;;;;;5073927;28;20374;-85
2023/10/18 00:40:50;;;;;;;;;;;18.40;99.90;;;;;;5091663;28;20398;-86
2023/10/18 00:43:28;;;;;;;;;;;18.40;99.90;;;;;;5089986;28;20387;-87
2023/10/18 00:45:54;;;;;;;;;;;18.40;99.90;;;;;;5071502;28;19909;-82
2023/10/18 00:48:23;;;;;;;;;;;18.40;99.90;;;;;;5090100;28;20007;-85
2023/10/18 00:50:52;;;;;;;;;;;18.40;99.90;;;;;;5090474;28;20273;-88
2023/10/18 00:53:20;;;;;;;;;;;18.40;99.90;;;;;;5088591;28;20409;-87
2023/10/18 00:55:47;;;;;;;;;;;18.50;99.90;;;;;;5090196;28;19916;-87
2023/10/18 00:58:15;;;;;;;;;;;18.40;99.90;;;;;;5087652;28;20388;-87
2023/10/18 01:00:41;;;;;;;;;;;18.40;99.90;;;;;;5072161;28;19952;-83
2023/10/18 01:03:09;;;;;;;;;;;18.40;99.90;;;;;;5071000;28;20382;-86
2023/10/18 01:05:57;;;;;;;;;;;18.40;99.90;;;;;;5070724;28;20384;-86
2023/10/18 01:08:23;;;;;;;;;;;18.40;99.90;;;;;;5111804;27;19908;-84
2023/10/18 01:10:50;;;;;;;;;;;18.40;99.90;;;;;;5089678;28;19912;-86
2023/10/18 01:13:20;;;;;;;;;;;18.50;99.90;;;;;;5089674;28;20688;-86
2023/10/18 01:15:45;;;;;;;;;;;18.50;99.90;;;;;;5078203;28;19920;-86
2023/10/18 01:18:11;;;;;;;;;;;18.50;99.90;;;;;;5069040;28;19916;-85
2023/10/18 01:20:40;;;;;;;;;;;18.40;99.90;;;;;;5069509;28;19908;-86
2023/10/18 01:23:10;;;;;;;;;;;18.40;99.90;;;;;;5102832;28;19939;-87
2023/10/18 01:25:37;;;;;;;;;;;18.40;99.90;;;;;;5070795;28;19908;-87
2023/10/18 01:28:03;;;;;;;;;;;18.40;99.90;;;;;;5084852;28;19912;-85
2023/10/18 01:30:29;;;;;;;;;;;18.40;99.90;;;;;;5089940;28;19999;-86
2023/10/18 01:32:55;;;;;;;;;;;18.40;99.90;;;;;;5076433;28;20383;-85
2023/10/18 01:35:21;;;;;;;;;;;18.40;99.90;;;;;;5111948;27;19944;-85
2023/10/18 01:37:46;;;;;;;;;;;18.40;99.90;;;;;;5088773;28;19916;-87
2023/10/18 01:40:23;;;;;;;;;;;18.30;99.90;;;;;;5088361;28;20009;-86
2023/10/18 01:42:50;;;;;;;;;;;18.40;99.90;;;;;;5075149;28;19913;-87
2023/10/18 01:45:22;;;;;;;;;;;18.30;99.90;;;;;;5085360;28;20252;-85
2023/10/18 01:47:48;;;;;;;;;;;18.30;99.90;;;;;;5088192;28;20283;-86
2023/10/18 01:50:14;;;;;;;;;;;18.30;99.90;;;;;;5071115;28;19919;-86
2023/10/18 01:52:41;;;;;;;;;;;18.30;99.90;;;;;;5084398;28;19920;-88
2023/10/18 01:55:09;;;;;;;;;;;18.20;99.90;;;;;;5069598;28;19974;-84
2023/10/18 01:57:34;;;;;;;;;;;18.10;99.90;;;;;;5082477;28;20026;-81
2023/10/18 02:00:00;;;;;;;;;;;18.10;99.90;;;;;;5089897;28;20427;-81
2023/10/18 02:02:25;;;;;;;;;;;18.10;99.90;;;;;;5079947;28;19908;-82
2023/10/18 02:04:53;;;;;;;;;;;18.00;99.90;;;;;;5090012;28;19938;-83
2023/10/18 02:07:19;;;;;;;;;;;18.00;99.90;;;;;;5090157;28;19977;-85
2023/10/18 02:09:52;;;;;;;;;;;17.90;99.90;;;;;;5090150;28;19912;-84
2023/10/18 02:12:21;;;;;;;;;;;17.90;99.90;;;;;;5090036;28;20034;-86
2023/10/18 02:14:50;;;;;;;;;;;17.90;99.90;;;;;;5089866;28;20033;-84
2023/10/18 02:17:18;;;;;;;;;;;18.00;99.90;;;;;;5089910;28;19946;-83
2023/10/18 02:19:44;;;;;;;;;;;17.90;99.90;;;;;;5088702;28;20463;-85
2023/10/18 02:22:10;;;;;;;;;;;17.90;99.90;;;;;;5088627;28;20374;-84
2023/10/18 02:24:36;;;;;;;;;;;17.90;99.90;;;;;;5079446;28;19968;-85
2023/10/18 02:27:02;;;;;;;;;;;17.90;99.90;;;;;;5084609;28;19913;-83
2023/10/18 02:29:28;;;;;;;;;;;17.90;99.90;;;;;;5088097;28;20374;-81
2023/10/18 02:31:57;;;;;;;;;;;17.90;99.90;;;;;;5087849;28;19908;-80
2023/10/18 02:34:25;;;;;;;;;;;17.90;99.90;;;;;;5089551;28;19916;-80
2023/10/18 02:36:52;;;;;;;;;;;17.90;99.90;;;;;;5089134;28;19908;-80
2023/10/18 02:39:23;;;;;;;;;;;17.80;99.90;;;;;;5089370;28;19914;-82
2023/10/18 02:41:49;;;;;;;;;;;17.90;99.90;;;;;;5089711;28;19908;-87
2023/10/18 02:44:24;;;;;;;;;;;17.80;99.90;;;;;;5093178;28;19919;-81
2023/10/18 02:46:54;;;;;;;;;;;17.80;99.90;;;;;;5087722;28;20163;-84
2023/10/18 02:49:22;;;;;;;;;;;17.90;99.90;;;;;;5051194;28;20588;-81
2023/10/18 02:51:48;;;;;;;;;;;17.80;99.90;;;;;;5050927;28;19909;-80
2023/10/18 02:54:17;;;;;;;;;;;17.90;99.90;;;;;;5069052;28;19919;-83
2023/10/18 02:56:43;;;;;;;;;;;17.80;99.90;;;;;;5069059;28;20403;-80
2023/10/18 02:59:09;;;;;;;;;;;17.80;99.90;;;;;;5050869;28;19909;-81
2023/10/18 03:01:39;;;;;;;;;;;17.80;99.90;;;;;;5050918;28;19931;-81
2023/10/18 03:04:08;;;;;;;;;;;17.80;99.90;;;;;;5068931;28;20020;-80
2023/10/18 03:06:33;;;;;;;;;;;17.80;99.90;;;;;;5062980;28;19912;-85
2023/10/18 03:09:00;;;;;;;;;;;17.80;99.90;;;;;;5067733;28;19934;-83
2023/10/18 03:11:26;;;;;;;;;;;17.80;99.90;;;;;;5066154;28;19912;-86
2023/10/18 03:13:52;;;;;;;;;;;17.80;99.90;;;;;;5065753;28;19925;-88
2023/10/18 03:16:27;;;;;;;;;;;17.80;99.90;;;;;;5059683;28;19912;-84
2023/10/18 03:18:53;;;;;;;;;;;17.80;99.90;;;;;;5061865;28;19966;-85
2023/10/18 03:21:22;;;;;;;;;;;17.80;99.90;;;;;;5051120;28;19908;-82
2023/10/18 03:23:51;;;;;;;;;;;17.80;99.90;;;;;;5067739;28;20416;-82
2023/10/18 03:26:23;;;;;;;;;;;17.80;99.90;;;;;;5067691;28;19912;-84
2023/10/18 03:28:52;;;;;;;;;;;17.90;99.90;;;;;;5049647;28;19912;-82
2023/10/18 03:31:36;;;;;;;;;;;17.80;99.90;;;;;;5050796;28;19999;-87
2023/10/18 03:34:02;;;;;;;;;;;17.90;99.90;;;;;;5067688;28;19921;-87
2023/10/18 03:36:31;;;;;;;;;;;17.80;99.90;;;;;;5066212;28;19916;-85
2023/10/18 03:39:00;;;;;;;;;;;17.80;99.90;;;;;;5065757;28;19924;-83
2023/10/18 03:41:26;;;;;;;;;;;17.80;99.90;;;;;;5068113;28;19967;-87
2023/10/18 03:44:06;;;;;;;;;;;17.90;99.90;;;;;;5067600;28;19908;-83
2023/10/18 03:49:37;;;;;;;;;;;17.80;99.90;;;;;;5051271;28;20984;-81
2023/10/18 03:54:45;;;;;;;;;;;17.80;99.90;;;;;;5071359;28;19912;-87
2023/10/18 03:57:16;;;;;;;;;;;17.80;99.90;;;;;;5068025;28;19916;-87
2023/10/18 03:59:44;;;;;;;;;;;17.80;99.90;;;;;;5064156;28;19909;-88
2023/10/18 04:02:16;;;;;;;;;;;17.80;99.90;;;;;;5074199;28;20343;-83
2023/10/18 04:04:47;;;;;;;;;;;17.80;99.90;;;;;;5070398;28;19970;-83
2023/10/18 04:07:16;;;;;;;;;;;17.80;99.90;;;;;;5071260;28;19908;-87
2023/10/18 04:10:00;;;;;;;;;;;17.80;99.90;;;;;;5068950;28;20335;-87
2023/10/18 04:12:27;;;;;;;;;;;17.90;99.90;;;;;;5066509;28;20463;-84
2023/10/18 04:14:55;;;;;;;;;;;17.80;99.90;;;;;;5069487;28;20299;-81
2023/10/18 04:17:32;;;;;;;;;;;17.80;99.90;;;;;;5066522;28;19909;-86
2023/10/18 04:20:07;;;;;;;;;;;17.80;99.90;;;;;;5070048;28;19919;-85
2023/10/18 04:22:33;;;;;;;;;;;17.90;99.90;;;;;;5069007;28;20261;-81
2023/10/18 04:24:58;;;;;;;;;;;17.90;99.90;;;;;;5068281;28;19920;-82
2023/10/18 04:27:24;;;;;;;;;;;17.80;99.90;;;;;;5070880;28;20668;-81
2023/10/18 04:29:55;;;;;;;;;;;17.80;99.90;;;;;;5069571;28;19913;-82
2023/10/18 04:32:23;;;;;;;;;;;17.80;99.90;;;;;;5067931;28;19924;-87
2023/10/18 04:34:48;;;;;;;;;;;17.80;99.90;;;;;;5069503;28;20391;-87
2023/10/18 04:37:14;;;;;;;;;;;17.70;99.90;;;;;;5069734;28;19908;-84
2023/10/18 04:39:40;;;;;;;;;;;17.70;99.90;;;;;;5058924;28;19909;-81
2023/10/18 04:42:06;;;;;;;;;;;17.70;99.90;;;;;;5066883;28;19920;-85
2023/10/18 04:44:35;;;;;;;;;;;17.70;99.90;;;;;;5071551;28;20322;-82
2023/10/18 04:47:03;;;;;;;;;;;17.60;99.90;;;;;;5073892;28;19912;-80
2023/10/18 04:49:36;;;;;;;;;;;17.60;99.90;;;;;;5089487;28;19916;-81
2023/10/18 04:52:04;;;;;;;;;;;17.60;99.90;;;;;;5080561;28;19913;-81
2023/10/18 04:57:05;;;;;;;;;;;17.50;99.90;;;;;;5091635;28;19916;-86
2023/10/18 04:59:44;;;;;;;;;;;17.60;99.90;;;;;;5095274;28;19908;-86
2023/10/18 05:02:16;;;;;;;;;;;17.50;99.90;;;;;;5109229;28;19907;-87
2023/10/18 05:04:41;;;;;;;;;;;17.50;99.90;;;;;;5097757;28;20364;-82
2023/10/18 05:09:41;;;;;;;;;;;17.50;99.90;;;;;;5099541;28;19919;-84
2023/10/18 05:12:30;;;;;;;;;;;17.50;99.90;;;;;;5102092;28;19946;-86
2023/10/18 05:17:26;;;;;;;;;;;17.50;99.90;;;;;;5090795;28;19908;-83
2023/10/18 05:19:55;;;;;;;;;;;17.60;99.90;;;;;;5090709;28;19909;-83
2023/10/18 05:22:24;;;;;;;;;;;17.60;99.90;;;;;;5090649;28;19908;-83
2023/10/18 05:27:38;;;;;;;;;;;17.60;99.90;;;;;;5104833;28;20558;-87
2023/10/18 05:30:15;;;;;;;;;;;17.60;99.90;;;;;;5087066;28;20399;-85
2023/10/18 05:32:49;;;;;;;;;;;17.50;99.90;;;;;;5105080;28;19923;-85
2023/10/18 05:35:27;;;;;;;;;;;17.60;99.90;;;;;;5103785;28;19912;-84
2023/10/18 05:38:06;;;;;;;;;;;17.60;99.90;;;;;;5090389;28;20357;-82
2023/10/18 05:43:05;;;;;;;;;;;17.60;99.90;;;;;;5089432;28;19908;-86
2023/10/18 05:45:33;;;;;;;;;;;17.50;99.90;;;;;;5088738;28;19914;-83
2023/10/18 05:48:03;;;;;;;;;;;17.60;99.90;;;;;;5075894;28;19920;-83
2023/10/18 05:50:34;;;;;;;;;;;17.60;99.90;;;;;;5070059;28;19912;-82
2023/10/18 05:53:03;;;;;;;;;;;17.60;99.90;;;;;;5087603;28;19965;-81
2023/10/18 05:55:30;;;;;;;;;;;17.50;99.90;;;;;;5092773;28;19916;-81
2023/10/18 05:57:56;;;;;;;;;;;17.50;99.90;;;;;;5110263;28;19919;-82
2023/10/18 06:00:22;;;;;;;;;;;17.50;99.90;;;;;;5093748;28;19912;-81
2023/10/18 06:02:48;;;;;;;;;;;17.50;99.90;;;;;;5090867;28;19964;-82
2023/10/18 06:05:13;;;;;;;;;;;17.40;99.90;;;;;;5089620;28;19912;-82
2023/10/18 06:07:39;;;;;;;;;;;17.40;99.90;;;;;;5088396;28;19912;-82
2023/10/18 06:10:13;;;;;;;;;;;17.40;99.90;;;;;;5089819;28;19919;-81
2023/10/18 06:12:46;;;;;;;;;;;17.50;99.90;;;;;;5081699;28;19921;-83
2023/10/18 06:15:13;;;;;;;;;;;17.50;99.90;;;;;;5081557;28;20400;-85
2023/10/18 06:20:30;;;;;;;;;;;17.50;99.90;;;;;;5090186;28;20307;-84
2023/10/18 06:23:08;;;;;;;;;;;17.50;99.90;;;;;;5069607;28;19918;-82
2023/10/18 06:25:35;;;;;;;;;;;17.50;99.90;;;;;;5088319;28;20384;-85
2023/10/18 06:28:01;;;;;;;;;;;17.50;99.90;;;;;;5081507;28;19916;-83
2023/10/18 06:30:27;;;;;;;;;;;17.40;99.90;;;;;;5081531;28;20031;-81
2023/10/18 06:32:52;;;;;;;;;;;17.50;99.90;;;;;;5091581;28;20292;-84
2023/10/18 06:35:19;;;;;;;;;;;17.50;99.90;;;;;;5094283;28;19938;-81
2023/10/18 06:37:45;;;;;;;;;;;17.50;99.90;;;;;;5098321;28;19912;-83
2023/10/18 06:43:08;;;;;;;;;;;17.60;99.90;;;;;;5077102;28;19912;-83
2023/10/18 06:45:37;;;;;;;;;;;17.60;99.90;;;;;;5087536;28;20011;-85
2023/10/18 06:48:03;;;;;;;;;;;17.60;99.90;;;;;;5088966;28;19916;-84
2023/10/18 06:50:30;;;;;;;;;;;17.60;99.90;;;;;;5088116;28;20421;-83
2023/10/18 06:52:55;;;;;;;;;;;17.60;99.90;;;;;;5089209;28;19916;-83
2023/10/18 06:55:35;;;;;;;;;;;17.50;99.90;;;;;;5089051;28;19912;-85
2023/10/18 06:58:11;;;;;;;;;;;17.60;99.90;;;;;;5089226;28;20151;-83
2023/10/18 07:00:43;;;;;;;;;;;17.50;99.90;;;;;;5108938;28;19911;-82
2023/10/18 07:03:08;;;;;;;;;;;17.50;99.90;;;;;;5098673;28;19908;-83
2023/10/18 07:05:35;;;;;;;;;;;17.60;99.90;;;;;;5085983;28;20272;-83
2023/10/18 07:08:01;;;;;;;;;;;17.60;99.90;;;;;;5079767;28;19912;-83
2023/10/18 07:10:53;;;;;;;;;;;17.60;99.90;;;;;;5089104;28;20367;-82
2023/10/18 07:13:21;;;;;;;;;;;17.50;99.90;;;;;;5088556;28;20326;-87
2023/10/18 07:15:46;;;;;;;;;;;17.50;99.90;;;;;;5089043;28;20333;-88
2023/10/18 07:18:14;;;;;;;;;;;17.60;99.90;;;;;;5095509;28;19912;-83
2023/10/18 07:20:41;;;;;;;;;;;17.50;99.90;;;;;;5098857;28;19957;-83
2023/10/18 07:23:17;;;;;;;;;;;17.60;99.90;;;;;;5088893;28;19913;-84
2023/10/18 07:25:43;;;;;;;;;;;17.50;99.90;;;;;;5090109;28;20291;-85
2023/10/18 07:28:09;;;;;;;;;;;17.50;99.90;;;;;;5094726;28;19923;-79
2023/10/18 07:30:38;;;;;;;;;;;17.60;99.90;;;;;;5092601;28;19908;-82
2023/10/18 07:33:04;;;;;;;;;;;17.40;99.90;;;;;;5092301;28;20543;-84
2023/10/18 07:35:31;;;;;;;;;;;17.40;99.90;;;;;;5092513;28;20436;-83
2023/10/18 07:37:57;;;;;;;;;;;17.50;99.90;;;;;;5091171;28;20367;-80
2023/10/18 07:40:23;;;;;;;;;;;17.40;99.90;;;;;;5092563;28;19916;-81
2023/10/18 07:42:51;;;;;;;;;;;17.50;99.90;;;;;;5087803;28;19974;-84
2023/10/18 07:45:17;;;;;;;;;;;17.50;99.90;;;;;;5092667;28;20295;-82
2023/10/18 07:47:42;;;;;;;;;;;17.50;99.90;;;;;;5091411;28;19923;-81
2023/10/18 07:50:54;;;;;;;;;;;17.60;99.90;;;;;;5092293;28;19908;-82
2023/10/18 07:52:54;;;;;;;;;;;17.60;99.90;;;;;;5098316;28;19971;-84
2023/10/18 07:55:23;;;;;;;;;;;17.50;99.90;;;;;;5105406;27;20406;-83
2023/10/18 07:57:49;;;;;;;;;;;17.60;99.90;;;;;;5091200;28;19919;-80
2023/10/18 08:00:26;;;;;;;;;;;17.60;99.90;;;;;;5072505;28;19908;-85
2023/10/18 08:02:52;;;;;;;;;;;17.60;99.90;;;;;;5086972;28;20379;-88
2023/10/18 08:05:23;;;;;;;;;;;17.60;99.90;;;;;;5090088;28;19987;-84
2023/10/18 08:07:50;;;;;;;;;;;17.60;99.90;;;;;;5084377;28;20334;-81
2023/10/18 08:10:25;;;;;;;;;;;17.60;99.90;;;;;;5092214;28;19912;-84
2023/10/18 08:15:37;;;;;;;;;;;17.60;99.90;;;;;;5090885;28;19919;-86
2023/10/18 08:18:14;;;;;;;;;;;17.60;99.90;;;;;;5091441;28;19908;-87
2023/10/18 08:23:37;;;;;;;;;;;17.60;99.90;;;;;;5092742;28;19908;-88
2023/10/18 08:26:04;;;;;;;;;;;17.60;99.90;;;;;;5090084;28;19912;-86
2023/10/18 08:28:39;;;;;;;;;;;17.70;99.90;;;;;;5089310;28;20060;-87
2023/10/18 08:31:26;;;;;;;;;;;17.70;99.90;;;;;;5090988;28;19963;-83
2023/10/18 08:33:55;;;;;;;;;;;17.80;99.90;;;;;;5090419;28;19920;-83
2023/10/18 08:36:29;;;;;;;;;;;17.80;99.90;;;;;;5093179;28;20419;-85
2023/10/18 08:38:55;;;;;;;;;;;17.80;99.90;;;;;;5091348;28;20372;-84
2023/10/18 08:41:25;;;;;;;;;;;17.90;99.90;;;;;;5091588;28;19908;-89
2023/10/18 08:43:52;;;;;;;;;;;17.90;99.90;;;;;;5091389;28;20014;-86
2023/10/18 08:46:24;;;;;;;;;;;17.90;99.90;;;;;;5090088;28;20330;-85
2023/10/18 08:48:51;;;;;;;;;;;17.90;99.90;;;;;;5090020;28;20010;-86
2023/10/18 08:51:17;;;;;;;;;;;17.90;99.90;;;;;;5091242;28;19918;-84
2023/10/18 08:53:43;;;;;;;;;;;17.90;99.90;;;;;;5090859;28;20287;-86
2023/10/18 08:56:09;;;;;;;;;;;17.90;99.90;;;;;;5091131;28;19912;-86
2023/10/18 08:58:36;;;;;;;;;;;18.00;99.90;;;;;;5091383;28;19908;-87
2023/10/18 09:03:27;;;;;;;;;;;18.10;99.90;;;;;;5090322;28;19973;-89
2023/10/18 09:06:02;;;;;;;;;;;18.10;99.90;;;;;;5089994;28;19912;-91
2023/10/18 09:08:28;;;;;;;;;;;18.10;99.90;;;;;;5091368;28;19908;-89
2023/10/18 09:10:54;;;;;;;;;;;18.10;99.90;;;;;;5091460;28;19908;-89
2023/10/18 09:16:34;;;;;;;;;;;18.20;99.90;;;;;;5089312;28;19916;-84
2023/10/18 09:18:35;;;;;;;;;;;18.10;99.90;;;;;;5087281;28;19908;-89
2023/10/18 09:23:40;;;;;;;;;;;18.20;99.90;;;;;;5091349;28;20384;-88
2023/10/18 09:26:18;;;;;;;;;;;18.20;99.90;;;;;;5090382;28;19981;-88
2023/10/18 09:28:44;;;;;;;;;;;18.30;99.90;;;;;;5091605;28;19955;-88
2023/10/18 09:31:11;;;;;;;;;;;18.30;99.90;;;;;;5089308;28;19934;-90
2023/10/18 09:33:48;;;;;;;;;;;18.40;99.90;;;;;;5090720;28;19928;-90
2023/10/18 09:36:20;;;;;;;;;;;18.30;99.90;;;;;;5091857;28;20387;-89
2023/10/18 09:38:47;;;;;;;;;;;18.40;99.90;;;;;;5091292;28;20325;-85
2023/10/18 09:41:12;;;;;;;;;;;18.40;99.90;;;;;;5119490;27;19919;-90
2023/10/18 09:43:38;;;;;;;;;;;18.50;99.90;;;;;;5082477;28;20555;-85
2023/10/18 09:46:04;;;;;;;;;;;18.60;99.90;;;;;;5090141;28;19912;-85
2023/10/18 09:48:38;;;;;;;;;;;18.60;99.90;;;;;;5090586;28;19916;-88
2023/10/18 09:51:06;;;;;;;;;;;18.60;99.90;;;;;;5064885;28;19913;-89
2023/10/18 09:53:42;;;;;;;;;;;18.70;99.90;;;;;;5088587;28;19966;-86
2023/10/18 09:56:11;;;;;;;;;;;18.80;99.90;;;;;;5090729;28;19912;-88
2023/10/18 09:58:41;;;;;;;;;;;18.80;99.90;;;;;;5090664;28;19939;-87
2023/10/18 10:01:14;;;;;;;;;;;18.90;99.90;;;;;;5085180;28;19998;-90
2023/10/18 10:03:51;;;;;;;;;;;18.90;99.90;;;;;;5062769;28;19920;-89
2023/10/18 10:06:18;;;;;;;;;;;18.90;99.90;;;;;;5051128;28;19919;-85
2023/10/18 10:08:47;;;;;;;;;;;19.00;99.90;;;;;;5033484;28;19909;-89
2023/10/18 10:11:14;;;;;;;;;;;19.10;99.90;;;;;;5054702;28;20376;-89
2023/10/18 10:13:39;;;;;;;;;;;19.00;99.90;;;;;;5079291;28;19927;-87
2023/10/18 10:16:08;;;;;;;;;;;19.10;99.90;;;;;;5062863;28;19913;-88
2023/10/18 10:18:37;;;;;;;;;;;19.20;99.90;;;;;;5050072;28;19916;-85
2023/10/18 10:21:06;;;;;;;;;;;19.20;99.90;;;;;;5055050;28;19919;-85
2023/10/18 10:23:32;;;;;;;;;;;19.30;99.90;;;;;;5069672;28;19931;-87
2023/10/18 10:26:10;;;;;;;;;;;19.30;99.90;;;;;;5051957;28;19909;-86
2023/10/18 10:31:54;;;;;;;;;;;19.50;99.90;;;;;;5053521;28;19992;-87
2023/10/18 10:34:27;;;;;;;;;;;19.50;99.90;;;;;;5064970;28;20300;-85
2023/10/18 10:37:02;;;;;;;;;;;19.60;99.90;;;;;;5046899;28;19912;-85
2023/10/18 10:39:32;;;;;;;;;;;19.60;99.90;;;;;;5053548;28;20286;-85
2023/10/18 10:42:01;;;;;;;;;;;19.60;99.90;;;;;;5051528;28;19912;-85
2023/10/18 10:44:30;;;;;;;;;;;19.70;99.90;;;;;;5051531;28;20407;-88
2023/10/18 10:47:16;;;;;;;;;;;19.60;99.90;;;;;;5053360;28;19954;-90
2023/10/18 10:49:58;;;;;;;;;;;19.70;99.90;;;;;;5087261;28;19916;-87
2023/10/18 10:52:29;;;;;;;;;;;19.80;99.90;;;;;;5087223;28;19923;-91
2023/10/18 10:55:04;;;;;;;;;;;19.90;99.90;;;;;;5086765;28;20327;-85
2023/10/18 10:57:43;;;;;;;;;;;20.00;99.90;;;;;;5068376;28;19916;-91
2023/10/18 11:02:54;;;;;;;;;;;20.00;99.90;;;;;;5094193;28;19946;-91
2023/10/18 11:05:24;;;;;;;;;;;20.00;99.90;;;;;;5093338;28;19959;-86
2023/10/18 11:07:50;;;;;;;;;;;20.00;99.90;;;;;;5093219;28;19912;-85
2023/10/18 11:10:17;;;;;;;;;;;20.10;99.90;;;;;;5094737;28;19914;-91
2023/10/18 11:12:45;;;;;;;;;;;20.10;99.90;;;;;;5093371;28;19920;-93
2023/10/18 11:15:16;;;;;;;;;;;20.10;99.90;;;;;;5093189;28;19942;-89
2023/10/18 11:17:47;;;;;;;;;;;20.30;99.90;;;;;;5090869;28;20027;-85
2023/10/18 11:20:19;;;;;;;;;;;20.20;99.90;;;;;;5084221;28;20300;-85
2023/10/18 11:22:47;;;;;;;;;;;20.20;99.90;;;;;;5094577;28;20325;-86
2023/10/18 11:25:14;;;;;;;;;;;20.40;99.90;;;;;;5090211;28;19912;-85
2023/10/18 11:27:40;;;;;;;;;;;20.10;99.90;;;;;;5092639;28;19920;-91
2023/10/18 11:30:28;;;;;;;;;;;20.20;99.90;;;;;;5093846;28;19908;-92
2023/10/18 11:32:54;;;;;;;;;;;20.10;99.90;;;;;;5092146;28;19958;-92
2023/10/18 11:35:26;;;;;;;;;;;20.10;99.90;;;;;;5094059;28;19962;-85
2023/10/18 11:37:52;;;;;;;;;;;20.10;99.90;;;;;;5094468;28;19913;-90
2023/10/18 11:40:29;;;;;;;;;;;20.10;99.90;;;;;;5096192;28;20257;-86
2023/10/18 11:43:07;;;;;;;;;;;20.20;99.90;;;;;;5091951;28;19919;-85
2023/10/18 11:45:34;;;;;;;;;;;20.30;99.90;;;;;;5093093;28;20261;-91
2023/10/18 11:48:02;;;;;;;;;;;20.20;99.90;;;;;;5093965;28;20276;-84
2023/10/18 11:50:50;;;;;;;;;;;20.20;99.90;;;;;;5092325;28;19912;-90
2023/10/18 11:53:17;;;;;;;;;;;20.20;99.90;;;;;;5086117;28;19923;-90
2023/10/18 11:55:52;;;;;;;;;;;20.20;99.90;;;;;;5094060;28;19912;-90
2023/10/18 11:58:18;;;;;;;;;;;20.20;99.90;;;;;;5084579;28;20410;-92
2023/10/18 12:00:47;;;;;;;;;;;20.10;99.90;;;;;;5093197;28;19965;-90
2023/10/18 12:03:13;;;;;;;;;;;20.20;99.90;;;;;;5126263;27;19918;-91
2023/10/18 12:05:42;;;;;;;;;;;20.20;99.90;;;;;;5093199;28;20002;-88
2023/10/18 12:08:12;;;;;;;;;;;20.20;99.90;;;;;;5093223;28;19908;-92
2023/10/18 12:10:38;;;;;;;;;;;20.30;99.90;;;;;;5091053;28;19908;-89
2023/10/18 12:13:12;;;;;;;;;;;20.30;99.90;;;;;;5089651;28;19970;-92
2023/10/18 12:15:38;;;;;;;;;;;20.20;99.90;;;;;;5084913;28;19912;-85
2023/10/18 12:18:09;;;;;;;;;;;20.10;99.90;;;;;;5109378;28;20371;-91
2023/10/18 12:20:42;;;;;;;;;;;20.20;99.90;;;;;;5092851;28;19912;-89
2023/10/18 12:23:13;;;;;;;;;;;20.20;99.90;;;;;;5100826;28;19908;-90
2023/10/18 12:25:44;;;;;;;;;;;20.10;99.90;;;;;;5095647;28;20006;-90
2023/10/18 12:28:15;;;;;;;;;;;20.10;99.90;;;;;;5094384;28;19912;-87
2023/10/18 12:30:44;;;;;;;;;;;20.10;99.90;;;;;;5091621;28;19955;-88
2023/10/18 12:33:19;;;;;;;;;;;20.10;99.90;;;;;;5101187;28;19924;-90
2023/10/18 12:35:45;;;;;;;;;;;20.00;99.90;;;;;;5092003;28;19993;-88
2023/10/18 12:38:21;;;;;;;;;;;20.10;99.90;;;;;;5092265;28;19920;-85
2023/10/18 12:40:54;;;;;;;;;;;20.00;99.90;;;;;;5091146;28;19908;-90
2023/10/18 12:43:21;;;;;;;;;;;20.00;99.90;;;;;;5092780;28;19908;-91
2023/10/18 12:45:50;;;;;;;;;;;20.00;99.90;;;;;;5088649;28;19912;-90
2023/10/18 12:48:21;;;;;;;;;;;20.00;99.90;;;;;;5076986;28;19917;-86
2023/10/18 12:50:50;;;;;;;;;;;20.00;99.90;;;;;;5087612;28;19912;-88
2023/10/18 12:53:17;;;;;;;;;;;20.10;99.90;;;;;;5088467;28;19920;-87
2023/10/18 12:55:46;;;;;;;;;;;20.00;99.90;;;;;;5079229;28;20560;-90
2023/10/18 12:58:18;;;;;;;;;;;19.90;99.90;;;;;;5097751;28;19930;-91
2023/10/18 13:00:53;;;;;;;;;;;19.90;99.90;;;;;;5092063;28;19920;-84
2023/10/18 13:03:23;;;;;;;;;;;20.00;99.90;;;;;;5091277;28;19998;-87
2023/10/18 13:05:51;;;;;;;;;;;19.70;99.90;;;;;;5090703;28;19920;-93
2023/10/18 13:08:25;;;;;;;;;;;19.80;99.90;;;;;;5076322;28;19916;-87
2023/10/18 13:13:32;;;;;;;;;;;19.80;99.90;;;;;;5071397;28;19920;-88
2023/10/18 13:15:58;;;;;;;;;;;19.80;99.90;;;;;;5076485;28;19908;-87
2023/10/18 13:18:25;;;;;;;;;;;19.80;99.90;;;;;;5088931;28;19915;-86
2023/10/18 13:20:51;;;;;;;;;;;19.70;99.90;;;;;;5087151;28;19908;-89
2023/10/18 13:23:18;;;;;;;;;;;19.40;99.90;;;;;;5079114;28;19916;-88
2023/10/18 13:25:53;;;;;;;;;;;19.40;99.90;;;;;;5077754;28;19932;-89
2023/10/18 13:28:24;;;;;;;;;;;19.40;99.90;;;;;;5078738;28;20402;-90
2023/10/18 13:30:51;;;;;;;;;;;19.40;99.90;;;;;;5079928;28;19999;-90
2023/10/18 13:33:20;;;;;;;;;;;19.40;99.90;;;;;;5073810;28;19960;-86
2023/10/18 13:35:45;;;;;;;;;;;19.20;99.90;;;;;;5084734;28;19927;-91
2023/10/18 13:38:15;;;;;;;;;;;19.20;99.90;;;;;;5090549;28;19909;-90
2023/10/18 13:40:43;;;;;;;;;;;19.20;99.90;;;;;;5086315;28;19912;-89
2023/10/18 13:43:09;;;;;;;;;;;19.20;99.90;;;;;;5080720;28;19916;-91
2023/10/18 13:45:35;;;;;;;;;;;19.20;99.90;;;;;;5091203;28;19915;-91
2023/10/18 13:48:02;;;;;;;;;;;19.30;99.90;;;;;;5090398;28;19985;-90
2023/10/18 13:50:31;;;;;;;;;;;19.20;99.90;;;;;;5095812;28;19965;-91
2023/10/18 13:52:56;;;;;;;;;;;19.20;99.90;;;;;;5111171;28;19923;-85
2023/10/18 13:55:22;;;;;;;;;;;19.20;99.90;;;;;;5089411;28;19912;-90
2023/10/18 13:57:47;;;;;;;;;;;19.10;99.90;;;;;;5076462;28;19999;-89
2023/10/18 14:00:14;;;;;;;;;;;18.90;99.90;;;;;;5089620;28;20276;-85
2023/10/18 14:02:40;;;;;;;;;;;19.00;99.90;;;;;;5070076;28;19909;-85
2023/10/18 14:05:07;;;;;;;;;;;19.00;99.90;;;;;;5071963;28;20010;-91
2023/10/18 14:07:36;;;;;;;;;;;19.10;99.90;;;;;;5081587;28;19909;-92
2023/10/18 14:10:19;;;;;;;;;;;19.10;99.90;;;;;;5090336;28;20360;-90
2023/10/18 14:12:48;;;;;;;;;;;18.90;99.90;;;;;;5082137;28;19962;-87
2023/10/18 14:15:16;;;;;;;;;;;19.00;99.90;;;;;;5070340;28;19912;-91
2023/10/18 14:17:44;;;;;;;;;;;19.00;99.90;;;;;;5070207;28;19914;-85
2023/10/18 14:20:13;;;;;;;;;;;19.00;99.90;;;;;;5082931;28;19920;-92
2023/10/18 14:22:40;;;;;;;;;;;19.00;99.90;;;;;;5086780;28;19954;-91
2023/10/18 14:25:08;;;;;;;;;;;19.10;99.90;;;;;;5082064;28;19919;-85
2023/10/18 14:27:35;;;;;;;;;;;19.20;99.90;;;;;;5077111;28;19919;-90
2023/10/18 14:30:04;;;;;;;;;;;19.20;99.90;;;;;;5073061;28;19947;-85
2023/10/18 14:32:29;;;;;;;;;;;19.10;99.90;;;;;;5077582;28;19973;-86
2023/10/18 14:34:55;;;;;;;;;;;19.00;99.90;;;;;;5082844;28;19915;-91
2023/10/18 14:37:22;;;;;;;;;;;19.10;99.90;;;;;;5089661;28;19916;-88
2023/10/18 14:39:48;;;;;;;;;;;19.00;99.90;;;;;;5089446;28;19918;-87
2023/10/18 14:42:14;;;;;;;;;;;19.00;99.90;;;;;;5080597;28;20406;-93
2023/10/18 14:44:39;;;;;;;;;;;19.00;99.90;;;;;;5078096;28;19912;-91
2023/10/18 14:47:06;;;;;;;;;;;19.00;99.90;;;;;;5084657;28;19946;-91
2023/10/18 14:49:32;;;;;;;;;;;19.00;99.90;;;;;;5083946;28;19912;-93
2023/10/18 14:51:57;;;;;;;;;;;19.00;99.90;;;;;;5084265;28;20004;-87
2023/10/18 14:54:23;;;;;;;;;;;19.00;99.90;;;;;;5076605;28;20023;-92
2023/10/18 14:56:48;;;;;;;;;;;19.00;99.90;;;;;;5116895;28;19924;-85
2023/10/18 14:59:14;;;;;;;;;;;19.00;99.90;;;;;;5084243;28;20023;-85
2023/10/18 15:01:39;;;;;;;;;;;18.90;99.90;;;;;;5077363;28;20269;-87
2023/10/18 15:04:07;;;;;;;;;;;18.70;99.90;;;;;;5088697;28;19912;-86
2023/10/18 15:06:37;;;;;;;;;;;18.80;99.90;;;;;;5088680;28;19908;-91
2023/10/18 15:09:03;;;;;;;;;;;18.60;99.90;;;;;;5087755;28;19977;-83
2023/10/18 15:11:29;;;;;;;;;;;18.50;99.90;;;;;;5086580;28;19915;-86
2023/10/18 15:13:55;;;;;;;;;;;18.50;99.90;;;;;;5067877;28;19985;-86